JAA ATPL Question 3572

0 Replies
2,025 votes ยท 22 hours left
Given the following METAR: EDDM 250850Z 33005KT 2000 R26R/P1500N R26L/1500N BR SCT002 OVC003 05/05 Q1025 NOSIG #atpl #jaa #dgca #pilot #aviation
Some text some message..